sensor_id;sensor_type;location;lat;lon;timestamp;pressure;altitude;pressure_sealevel;temperature
15680;BMP180;15488;48.114;11.532;2023-12-20T00:00:44;95315.00;;;13.80
15680;BMP180;15488;48.114;11.532;2023-12-20T00:03:12;95306.00;;;13.90
15680;BMP180;15488;48.114;11.532;2023-12-20T00:05:39;95308.00;;;13.90
15680;BMP180;15488;48.114;11.532;2023-12-20T00:08:07;95302.00;;;14.00
15680;BMP180;15488;48.114;11.532;2023-12-20T00:10:35;95303.00;;;14.10
15680;BMP180;15488;48.114;11.532;2023-12-20T00:13:04;95306.00;;;13.90
15680;BMP180;15488;48.114;11.532;2023-12-20T00:15:33;95293.00;;;14.00
15680;BMP180;15488;48.114;11.532;2023-12-20T00:18:00;95292.00;;;14.00
15680;BMP180;15488;48.114;11.532;2023-12-20T00:20:28;95288.00;;;13.80
15680;BMP180;15488;48.114;11.532;2023-12-20T00:22:57;95285.00;;;13.80
15680;BMP180;15488;48.114;11.532;2023-12-20T00:25:25;95283.00;;;13.80
15680;BMP180;15488;48.114;11.532;2023-12-20T00:27:52;95283.00;;;13.70
15680;BMP180;15488;48.114;11.532;2023-12-20T00:30:21;95295.00;;;13.70
15680;BMP180;15488;48.114;11.532;2023-12-20T00:32:49;95287.00;;;13.80
15680;BMP180;15488;48.114;11.532;2023-12-20T00:35:19;95283.00;;;13.90
15680;BMP180;15488;48.114;11.532;2023-12-20T00:37:47;95282.00;;;13.90
15680;BMP180;15488;48.114;11.532;2023-12-20T00:40:14;95278.00;;;13.90
15680;BMP180;15488;48.114;11.532;2023-12-20T00:42:42;95275.00;;;13.90
15680;BMP180;15488;48.114;11.532;2023-12-20T00:45:10;95281.00;;;13.90
15680;BMP180;15488;48.114;11.532;2023-12-20T00:47:39;95266.00;;;13.80
15680;BMP180;15488;48.114;11.532;2023-12-20T00:50:07;95268.00;;;13.70
15680;BMP180;15488;48.114;11.532;2023-12-20T00:52:35;95257.00;;;13.60
15680;BMP180;15488;48.114;11.532;2023-12-20T00:55:03;95253.00;;;13.70
15680;BMP180;15488;48.114;11.532;2023-12-20T00:57:31;95252.00;;;13.80
15680;BMP180;15488;48.114;11.532;2023-12-20T00:59:58;95252.00;;;13.90
15680;BMP180;15488;48.114;11.532;2023-12-20T01:02:26;95262.00;;;13.70
15680;BMP180;15488;48.114;11.532;2023-12-20T01:04:55;95252.00;;;13.70
15680;BMP180;15488;48.114;11.532;2023-12-20T01:07:22;95253.00;;;13.60
15680;BMP180;15488;48.114;11.532;2023-12-20T01:09:50;95239.00;;;13.70
15680;BMP180;15488;48.114;11.532;2023-12-20T01:12:17;95239.00;;;13.60
15680;BMP180;15488;48.114;11.532;2023-12-20T01:14:46;95237.00;;;13.80
15680;BMP180;15488;48.114;11.532;2023-12-20T01:17:14;95234.00;;;13.90
15680;BMP180;15488;48.114;11.532;2023-12-20T01:19:41;95235.00;;;13.90
15680;BMP180;15488;48.114;11.532;2023-12-20T01:22:10;95236.00;;;13.80
15680;BMP180;15488;48.114;11.532;2023-12-20T01:24:38;95231.00;;;13.80
15680;BMP180;15488;48.114;11.532;2023-12-20T01:27:05;95226.00;;;13.80
15680;BMP180;15488;48.114;11.532;2023-12-20T01:29:33;95220.00;;;13.90
15680;BMP180;15488;48.114;11.532;2023-12-20T01:32:00;95207.00;;;14.00
15680;BMP180;15488;48.114;11.532;2023-12-20T01:34:28;95214.00;;;13.90
15680;BMP180;15488;48.114;11.532;2023-12-20T01:36:55;95225.00;;;13.70
15680;BMP180;15488;48.114;11.532;2023-12-20T01:39:25;95226.00;;;13.60
15680;BMP180;15488;48.114;11.532;2023-12-20T01:41:52;95217.00;;;13.70
15680;BMP180;15488;48.114;11.532;2023-12-20T01:44:20;95218.00;;;13.90
15680;BMP180;15488;48.114;11.532;2023-12-20T01:46:48;95209.00;;;13.90
15680;BMP180;15488;48.114;11.532;2023-12-20T01:49:16;95202.00;;;13.90
15680;BMP180;15488;48.114;11.532;2023-12-20T01:51:43;95205.00;;;13.90
15680;BMP180;15488;48.114;11.532;2023-12-20T01:54:11;95201.00;;;13.90
15680;BMP180;15488;48.114;11.532;2023-12-20T01:56:41;95206.00;;;13.90
15680;BMP180;15488;48.114;11.532;2023-12-20T01:59:09;95186.00;;;13.90
15680;BMP180;15488;48.114;11.532;2023-12-20T02:01:37;95183.00;;;13.80
15680;BMP180;15488;48.114;11.532;2023-12-20T02:04:05;95175.00;;;13.80
15680;BMP180;15488;48.114;11.532;2023-12-20T02:06:34;95165.00;;;13.80
15680;BMP180;15488;48.114;11.532;2023-12-20T02:09:02;95160.00;;;13.90
15680;BMP180;15488;48.114;11.532;2023-12-20T02:11:29;95153.00;;;13.80
15680;BMP180;15488;48.114;11.532;2023-12-20T02:13:58;95155.00;;;13.80
15680;BMP180;15488;48.114;11.532;2023-12-20T02:16:26;95148.00;;;13.70
15680;BMP180;15488;48.114;11.532;2023-12-20T02:18:54;95148.00;;;13.70
15680;BMP180;15488;48.114;11.532;2023-12-20T02:21:31;95152.00;;;13.90
15680;BMP180;15488;48.114;11.532;2023-12-20T02:23:59;95142.00;;;13.80
15680;BMP180;15488;48.114;11.532;2023-12-20T02:26:27;95148.00;;;13.80
15680;BMP180;15488;48.114;11.532;2023-12-20T02:28:55;95151.00;;;13.80
15680;BMP180;15488;48.114;11.532;2023-12-20T02:31:23;95144.00;;;13.80
15680;BMP180;15488;48.114;11.532;2023-12-20T02:33:50;95134.00;;;14.00
15680;BMP180;15488;48.114;11.532;2023-12-20T02:36:18;95139.00;;;13.90
15680;BMP180;15488;48.114;11.532;2023-12-20T02:38:47;95141.00;;;13.90
15680;BMP180;15488;48.114;11.532;2023-12-20T02:41:16;95120.00;;;13.90
15680;BMP180;15488;48.114;11.532;2023-12-20T02:43:44;95127.00;;;13.90
15680;BMP180;15488;48.114;11.532;2023-12-20T02:46:13;95122.00;;;13.90
15680;BMP180;15488;48.114;11.532;2023-12-20T02:48:41;95124.00;;;13.90
15680;BMP180;15488;48.114;11.532;2023-12-20T02:51:08;95131.00;;;14.10
15680;BMP180;15488;48.114;11.532;2023-12-20T02:53:36;95125.00;;;14.10
15680;BMP180;15488;48.114;11.532;2023-12-20T02:56:05;95115.00;;;14.10
15680;BMP180;15488;48.114;11.532;2023-12-20T02:58:33;95122.00;;;14.20
15680;BMP180;15488;48.114;11.532;2023-12-20T03:01:00;95112.00;;;14.20
15680;BMP180;15488;48.114;11.532;2023-12-20T03:03:28;95115.00;;;14.20
15680;BMP180;15488;48.114;11.532;2023-12-20T03:05:56;95121.00;;;14.20
15680;BMP180;15488;48.114;11.532;2023-12-20T03:08:23;95138.00;;;14.30
15680;BMP180;15488;48.114;11.532;2023-12-20T03:10:51;95131.00;;;14.30
15680;BMP180;15488;48.114;11.532;2023-12-20T03:13:20;95128.00;;;14.30
15680;BMP180;15488;48.114;11.532;2023-12-20T03:15:48;95133.00;;;14.10
15680;BMP180;15488;48.114;11.532;2023-12-20T03:18:15;95125.00;;;14.10
15680;BMP180;15488;48.114;11.532;2023-12-20T03:20:44;95127.00;;;14.10
15680;BMP180;15488;48.114;11.532;2023-12-20T03:23:13;95121.00;;;14.10
15680;BMP180;15488;48.114;11.532;2023-12-20T03:25:41;95131.00;;;13.90
15680;BMP180;15488;48.114;11.532;2023-12-20T03:28:08;95133.00;;;14.00
15680;BMP180;15488;48.114;11.532;2023-12-20T03:30:37;95131.00;;;13.90
15680;BMP180;15488;48.114;11.532;2023-12-20T03:33:05;95131.00;;;14.00
15680;BMP180;15488;48.114;11.532;2023-12-20T03:35:33;95143.00;;;13.90
15680;BMP180;15488;48.114;11.532;2023-12-20T03:38:01;95145.00;;;13.80
15680;BMP180;15488;48.114;11.532;2023-12-20T03:40:29;95161.00;;;13.80
15680;BMP180;15488;48.114;11.532;2023-12-20T03:42:56;95160.00;;;13.80
15680;BMP180;15488;48.114;11.532;2023-12-20T03:45:24;95164.00;;;13.70
15680;BMP180;15488;48.114;11.532;2023-12-20T03:47:53;95169.00;;;13.90
15680;BMP180;15488;48.114;11.532;2023-12-20T03:50:21;95165.00;;;13.90
15680;BMP180;15488;48.114;11.532;2023-12-20T03:52:49;95176.00;;;13.90
15680;BMP180;15488;48.114;11.532;2023-12-20T03:55:16;95166.00;;;13.90
15680;BMP180;15488;48.114;11.532;2023-12-20T03:57:45;95175.00;;;13.80
15680;BMP180;15488;48.114;11.532;2023-12-20T04:00:13;95167.00;;;13.70
15680;BMP180;15488;48.114;11.532;2023-12-20T04:02:42;95182.00;;;13.50
15680;BMP180;15488;48.114;11.532;2023-12-20T04:05:11;95177.00;;;13.60
15680;BMP180;15488;48.114;11.532;2023-12-20T04:07:38;95178.00;;;13.60
15680;BMP180;15488;48.114;11.532;2023-12-20T04:10:07;95176.00;;;13.70
15680;BMP180;15488;48.114;11.532;2023-12-20T04:12:34;95173.00;;;13.70
15680;BMP180;15488;48.114;11.532;2023-12-20T04:15:02;95180.00;;;13.90
15680;BMP180;15488;48.114;11.532;2023-12-20T04:17:35;95191.00;;;13.80
15680;BMP180;15488;48.114;11.532;2023-12-20T04:20:03;95175.00;;;13.80
15680;BMP180;15488;48.114;11.532;2023-12-20T04:22:32;95186.00;;;13.70
15680;BMP180;15488;48.114;11.532;2023-12-20T04:25:00;95179.00;;;13.70
15680;BMP180;15488;48.114;11.532;2023-12-20T04:27:28;95172.00;;;13.50
15680;BMP180;15488;48.114;11.532;2023-12-20T04:29:56;95168.00;;;13.30
15680;BMP180;15488;48.114;11.532;2023-12-20T04:32:23;95170.00;;;13.40
15680;BMP180;15488;48.114;11.532;2023-12-20T04:34:51;95171.00;;;13.50
15680;BMP180;15488;48.114;11.532;2023-12-20T04:37:18;95167.00;;;13.60
15680;BMP180;15488;48.114;11.532;2023-12-20T04:39:47;95169.00;;;13.60
15680;BMP180;15488;48.114;11.532;2023-12-20T04:42:15;95176.00;;;13.50
15680;BMP180;15488;48.114;11.532;2023-12-20T04:44:42;95183.00;;;13.70
15680;BMP180;15488;48.114;11.532;2023-12-20T04:47:11;95184.00;;;13.70
15680;BMP180;15488;48.114;11.532;2023-12-20T04:49:38;95204.00;;;13.80
15680;BMP180;15488;48.114;11.532;2023-12-20T04:52:06;95187.00;;;13.60
15680;BMP180;15488;48.114;11.532;2023-12-20T04:54:33;95212.00;;;13.50
15680;BMP180;15488;48.114;11.532;2023-12-20T04:57:02;95202.00;;;13.30
15680;BMP180;15488;48.114;11.532;2023-12-20T04:59:30;95211.00;;;13.20
15680;BMP180;15488;48.114;11.532;2023-12-20T05:01:58;95210.00;;;13.20
15680;BMP180;15488;48.114;11.532;2023-12-20T05:04:25;95222.00;;;13.10
15680;BMP180;15488;48.114;11.532;2023-12-20T05:06:53;95219.00;;;13.20
15680;BMP180;15488;48.114;11.532;2023-12-20T05:09:20;95224.00;;;13.20
15680;BMP180;15488;48.114;11.532;2023-12-20T05:11:48;95224.00;;;13.20
15680;BMP180;15488;48.114;11.532;2023-12-20T05:14:17;95228.00;;;13.40
15680;BMP180;15488;48.114;11.532;2023-12-20T05:16:44;95218.00;;;13.30
15680;BMP180;15488;48.114;11.532;2023-12-20T05:19:12;95238.00;;;13.30
15680;BMP180;15488;48.114;11.532;2023-12-20T05:21:40;95237.00;;;13.10
15680;BMP180;15488;48.114;11.532;2023-12-20T05:24:08;95233.00;;;13.00
15680;BMP180;15488;48.114;11.532;2023-12-20T05:26:35;95248.00;;;13.10
15680;BMP180;15488;48.114;11.532;2023-12-20T05:29:03;95243.00;;;13.00
15680;BMP180;15488;48.114;11.532;2023-12-20T05:31:32;95242.00;;;12.90
15680;BMP180;15488;48.114;11.532;2023-12-20T05:33:59;95246.00;;;12.90
15680;BMP180;15488;48.114;11.532;2023-12-20T05:36:27;95248.00;;;12.80
15680;BMP180;15488;48.114;11.532;2023-12-20T05:38:54;95255.00;;;12.80
15680;BMP180;15488;48.114;11.532;2023-12-20T05:41:22;95253.00;;;12.90
15680;BMP180;15488;48.114;11.532;2023-12-20T05:43:49;95270.00;;;12.90
15680;BMP180;15488;48.114;11.532;2023-12-20T05:46:17;95264.00;;;12.80
15680;BMP180;15488;48.114;11.532;2023-12-20T05:48:46;95266.00;;;12.60
15680;BMP180;15488;48.114;11.532;2023-12-20T05:51:13;95263.00;;;12.50
15680;BMP180;15488;48.114;11.532;2023-12-20T05:53:41;95270.00;;;12.20
15680;BMP180;15488;48.114;11.532;2023-12-20T05:56:08;95282.00;;;12.20
15680;BMP180;15488;48.114;11.532;2023-12-20T05:58:36;95281.00;;;12.30
15680;BMP180;15488;48.114;11.532;2023-12-20T06:01:05;95284.00;;;12.40
15680;BMP180;15488;48.114;11.532;2023-12-20T06:03:34;95293.00;;;12.40
15680;BMP180;15488;48.114;11.532;2023-12-20T06:06:06;95293.00;;;12.30
15680;BMP180;15488;48.114;11.532;2023-12-20T06:08:34;95281.00;;;12.30
15680;BMP180;15488;48.114;11.532;2023-12-20T06:11:02;95295.00;;;12.20
15680;BMP180;15488;48.114;11.532;2023-12-20T06:13:29;95292.00;;;12.20
15680;BMP180;15488;48.114;11.532;2023-12-20T06:15:57;95293.00;;;12.00
15680;BMP180;15488;48.114;11.532;2023-12-20T06:18:24;95304.00;;;12.10
15680;BMP180;15488;48.114;11.532;2023-12-20T06:20:52;95300.00;;;12.10
15680;BMP180;15488;48.114;11.532;2023-12-20T06:23:21;95309.00;;;11.90
15680;BMP180;15488;48.114;11.532;2023-12-20T06:25:48;95311.00;;;11.90
15680;BMP180;15488;48.114;11.532;2023-12-20T06:28:16;95307.00;;;11.90
15680;BMP180;15488;48.114;11.532;2023-12-20T06:30:44;95309.00;;;11.90
15680;BMP180;15488;48.114;11.532;2023-12-20T06:33:13;95313.00;;;12.00
15680;BMP180;15488;48.114;11.532;2023-12-20T06:35:41;95324.00;;;11.90
15680;BMP180;15488;48.114;11.532;2023-12-20T06:38:08;95319.00;;;11.80
15680;BMP180;15488;48.114;11.532;2023-12-20T06:40:37;95326.00;;;11.60
15680;BMP180;15488;48.114;11.532;2023-12-20T06:43:05;95341.00;;;11.70
15680;BMP180;15488;48.114;11.532;2023-12-20T06:45:32;95338.00;;;11.70
15680;BMP180;15488;48.114;11.532;2023-12-20T06:48:00;95335.00;;;11.60
15680;BMP180;15488;48.114;11.532;2023-12-20T06:50:28;95343.00;;;11.50
15680;BMP180;15488;48.114;11.532;2023-12-20T06:52:55;95355.00;;;11.40
15680;BMP180;15488;48.114;11.532;2023-12-20T06:55:23;95351.00;;;11.40
15680;BMP180;15488;48.114;11.532;2023-12-20T06:57:52;95343.00;;;11.40
15680;BMP180;15488;48.114;11.532;2023-12-20T07:00:20;95343.00;;;11.50
15680;BMP180;15488;48.114;11.532;2023-12-20T07:02:48;95345.00;;;11.40
15680;BMP180;15488;48.114;11.532;2023-12-20T07:05:17;95354.00;;;11.30
15680;BMP180;15488;48.114;11.532;2023-12-20T07:07:46;95350.00;;;11.40
15680;BMP180;15488;48.114;11.532;2023-12-20T07:10:13;95356.00;;;11.40
15680;BMP180;15488;48.114;11.532;2023-12-20T07:12:41;95365.00;;;11.40
15680;BMP180;15488;48.114;11.532;2023-12-20T07:15:11;95364.00;;;11.40
15680;BMP180;15488;48.114;11.532;2023-12-20T07:17:38;95379.00;;;11.30
15680;BMP180;15488;48.114;11.532;2023-12-20T07:20:07;95382.00;;;11.30
15680;BMP180;15488;48.114;11.532;2023-12-20T07:22:37;95372.00;;;11.30
15680;BMP180;15488;48.114;11.532;2023-12-20T07:25:06;95393.00;;;11.30
15680;BMP180;15488;48.114;11.532;2023-12-20T07:27:33;95389.00;;;11.20
15680;BMP180;15488;48.114;11.532;2023-12-20T07:30:01;95384.00;;;11.20
15680;BMP180;15488;48.114;11.532;2023-12-20T07:32:30;95406.00;;;11.00
15680;BMP180;15488;48.114;11.532;2023-12-20T07:34:58;95401.00;;;10.90
15680;BMP180;15488;48.114;11.532;2023-12-20T07:37:25;95404.00;;;11.00
15680;BMP180;15488;48.114;11.532;2023-12-20T07:39:53;95402.00;;;11.00
15680;BMP180;15488;48.114;11.532;2023-12-20T07:42:20;95404.00;;;11.00
15680;BMP180;15488;48.114;11.532;2023-12-20T07:44:49;95394.00;;;11.00
15680;BMP180;15488;48.114;11.532;2023-12-20T07:47:16;95397.00;;;11.10
15680;BMP180;15488;48.114;11.532;2023-12-20T07:49:49;95409.00;;;11.20
15680;BMP180;15488;48.114;11.532;2023-12-20T07:52:17;95399.00;;;11.00
15680;BMP180;15488;48.114;11.532;2023-12-20T07:54:45;95395.00;;;11.40
15680;BMP180;15488;48.114;11.532;2023-12-20T07:57:13;95394.00;;;11.50
15680;BMP180;15488;48.114;11.532;2023-12-20T07:59:40;95409.00;;;11.40
15680;BMP180;15488;48.114;11.532;2023-12-20T08:02:08;95424.00;;;11.40
15680;BMP180;15488;48.114;11.532;2023-12-20T08:04:35;95411.00;;;11.40
15680;BMP180;15488;48.114;11.532;2023-12-20T08:07:05;95424.00;;;11.30
15680;BMP180;15488;48.114;11.532;2023-12-20T08:09:32;95426.00;;;11.30
15680;BMP180;15488;48.114;11.532;2023-12-20T08:12:00;95420.00;;;11.30
15680;BMP180;15488;48.114;11.532;2023-12-20T08:14:28;95427.00;;;11.30
15680;BMP180;15488;48.114;11.532;2023-12-20T08:16:55;95431.00;;;11.20
15680;BMP180;15488;48.114;11.532;2023-12-20T08:19:23;95427.00;;;11.20
15680;BMP180;15488;48.114;11.532;2023-12-20T08:21:50;95432.00;;;11.30
15680;BMP180;15488;48.114;11.532;2023-12-20T08:24:19;95434.00;;;11.30
15680;BMP180;15488;48.114;11.532;2023-12-20T08:26:47;95432.00;;;11.30
15680;BMP180;15488;48.114;11.532;2023-12-20T08:29:14;95437.00;;;11.30
15680;BMP180;15488;48.114;11.532;2023-12-20T08:31:42;95431.00;;;11.30
15680;BMP180;15488;48.114;11.532;2023-12-20T08:34:09;95424.00;;;11.20
15680;BMP180;15488;48.114;11.532;2023-12-20T08:36:39;95428.00;;;11.10
15680;BMP180;15488;48.114;11.532;2023-12-20T08:39:07;95434.00;;;11.00
15680;BMP180;15488;48.114;11.532;2023-12-20T08:41:36;95433.00;;;11.00
15680;BMP180;15488;48.114;11.532;2023-12-20T08:44:04;95430.00;;;10.90
15680;BMP180;15488;48.114;11.532;2023-12-20T08:46:31;95427.00;;;11.00
15680;BMP180;15488;48.114;11.532;2023-12-20T08:48:59;95433.00;;;10.90
15680;BMP180;15488;48.114;11.532;2023-12-20T08:51:26;95426.00;;;11.00
15680;BMP180;15488;48.114;11.532;2023-12-20T08:53:54;95417.00;;;11.00
15680;BMP180;15488;48.114;11.532;2023-12-20T08:56:22;95422.00;;;10.90
15680;BMP180;15488;48.114;11.532;2023-12-20T08:58:51;95423.00;;;11.00
15680;BMP180;15488;48.114;11.532;2023-12-20T09:01:18;95425.00;;;11.10
15680;BMP180;15488;48.114;11.532;2023-12-20T09:03:46;95428.00;;;11.10
15680;BMP180;15488;48.114;11.532;2023-12-20T09:06:13;95423.00;;;11.00
15680;BMP180;15488;48.114;11.532;2023-12-20T09:08:41;95428.00;;;11.00
15680;BMP180;15488;48.114;11.532;2023-12-20T09:11:09;95428.00;;;11.00
15680;BMP180;15488;48.114;11.532;2023-12-20T09:13:36;95434.00;;;10.90
15680;BMP180;15488;48.114;11.532;2023-12-20T09:16:06;95417.00;;;10.90
15680;BMP180;15488;48.114;11.532;2023-12-20T09:18:33;95416.00;;;10.80
15680;BMP180;15488;48.114;11.532;2023-12-20T09:21:01;95425.00;;;11.00
15680;BMP180;15488;48.114;11.532;2023-12-20T09:23:28;95427.00;;;11.00
15680;BMP180;15488;48.114;11.532;2023-12-20T09:25:56;95422.00;;;11.00
15680;BMP180;15488;48.114;11.532;2023-12-20T09:28:24;95427.00;;;11.00
15680;BMP180;15488;48.114;11.532;2023-12-20T09:30:51;95421.00;;;11.00
15680;BMP180;15488;48.114;11.532;2023-12-20T09:33:20;95414.00;;;11.00
15680;BMP180;15488;48.114;11.532;2023-12-20T09:35:48;95429.00;;;11.00
15680;BMP180;15488;48.114;11.532;2023-12-20T09:38:15;95425.00;;;11.10
15680;BMP180;15488;48.114;11.532;2023-12-20T09:40:43;95429.00;;;11.10
15680;BMP180;15488;48.114;11.532;2023-12-20T09:43:13;95436.00;;;11.20
15680;BMP180;15488;48.114;11.532;2023-12-20T09:45:43;95437.00;;;11.30
15680;BMP180;15488;48.114;11.532;2023-12-20T09:48:13;95438.00;;;11.30
15680;BMP180;15488;48.114;11.532;2023-12-20T09:50:43;95429.00;;;11.10
15680;BMP180;15488;48.114;11.532;2023-12-20T09:53:14;95429.00;;;11.20
15680;BMP180;15488;48.114;11.532;2023-12-20T09:55:42;95431.00;;;11.30
15680;BMP180;15488;48.114;11.532;2023-12-20T09:58:09;95420.00;;;11.10
15680;BMP180;15488;48.114;11.532;2023-12-20T10:00:37;95421.00;;;11.20
15680;BMP180;15488;48.114;11.532;2023-12-20T10:03:06;95414.00;;;11.30
15680;BMP180;15488;48.114;11.532;2023-12-20T10:05:35;95415.00;;;11.30
15680;BMP180;15488;48.114;11.532;2023-12-20T10:08:05;95414.00;;;11.30
15680;BMP180;15488;48.114;11.532;2023-12-20T10:10:32;95404.00;;;11.30
15680;BMP180;15488;48.114;11.532;2023-12-20T10:13:05;95407.00;;;11.30
15680;BMP180;15488;48.114;11.532;2023-12-20T10:15:33;95403.00;;;11.30
15680;BMP180;15488;48.114;11.532;2023-12-20T10:18:01;95405.00;;;11.40
15680;BMP180;15488;48.114;11.532;2023-12-20T10:20:28;95408.00;;;11.60
15680;BMP180;15488;48.114;11.532;2023-12-20T10:22:56;95404.00;;;11.70
15680;BMP180;15488;48.114;11.532;2023-12-20T10:25:26;95401.00;;;11.60
15680;BMP180;15488;48.114;11.532;2023-12-20T10:28:09;95401.00;;;11.70
15680;BMP180;15488;48.114;11.532;2023-12-20T10:30:37;95402.00;;;11.90
15680;BMP180;15488;48.114;11.532;2023-12-20T10:33:06;95396.00;;;12.00
15680;BMP180;15488;48.114;11.532;2023-12-20T10:35:34;95398.00;;;12.00
15680;BMP180;15488;48.114;11.532;2023-12-20T10:38:04;95409.00;;;12.00
15680;BMP180;15488;48.114;11.532;2023-12-20T10:40:35;95400.00;;;12.00
15680;BMP180;15488;48.114;11.532;2023-12-20T10:43:04;95394.00;;;12.00
15680;BMP180;15488;48.114;11.532;2023-12-20T10:45:32;95407.00;;;12.00
15680;BMP180;15488;48.114;11.532;2023-12-20T10:48:02;95399.00;;;12.10
15680;BMP180;15488;48.114;11.532;2023-12-20T10:50:32;95395.00;;;12.10
15680;BMP180;15488;48.114;11.532;2023-12-20T10:52:59;95391.00;;;12.20
15680;BMP180;15488;48.114;11.532;2023-12-20T10:55:27;95391.00;;;12.20
15680;BMP180;15488;48.114;11.532;2023-12-20T10:58:01;95380.00;;;12.10
15680;BMP180;15488;48.114;11.532;2023-12-20T11:00:29;95389.00;;;12.10
15680;BMP180;15488;48.114;11.532;2023-12-20T11:03:00;95385.00;;;12.10
15680;BMP180;15488;48.114;11.532;2023-12-20T11:05:36;95381.00;;;12.10
15680;BMP180;15488;48.114;11.532;2023-12-20T11:08:10;95379.00;;;12.00
15680;BMP180;15488;48.114;11.532;2023-12-20T11:10:43;95380.00;;;11.90
15680;BMP180;15488;48.114;11.532;2023-12-20T11:13:21;95377.00;;;11.90
15680;BMP180;15488;48.114;11.532;2023-12-20T11:15:50;95379.00;;;11.90
15680;BMP180;15488;48.114;11.532;2023-12-20T11:18:17;95380.00;;;12.00
15680;BMP180;15488;48.114;11.532;2023-12-20T11:20:45;95390.00;;;12.10
15680;BMP180;15488;48.114;11.532;2023-12-20T11:23:13;95373.00;;;12.00
15680;BMP180;15488;48.114;11.532;2023-12-20T11:25:48;95368.00;;;12.10
15680;BMP180;15488;48.114;11.532;2023-12-20T11:28:23;95364.00;;;12.00
15680;BMP180;15488;48.114;11.532;2023-12-20T11:30:52;95362.00;;;12.10
15680;BMP180;15488;48.114;11.532;2023-12-20T11:33:22;95357.00;;;12.10
15680;BMP180;15488;48.114;11.532;2023-12-20T11:35:50;95343.00;;;12.20
15680;BMP180;15488;48.114;11.532;2023-12-20T11:38:19;95350.00;;;12.20
15680;BMP180;15488;48.114;11.532;2023-12-20T11:40:49;95352.00;;;12.30
15680;BMP180;15488;48.114;11.532;2023-12-20T11:43:31;95347.00;;;12.30
15680;BMP180;15488;48.114;11.532;2023-12-20T11:46:03;95344.00;;;12.30
15680;BMP180;15488;48.114;11.532;2023-12-20T11:48:33;95338.00;;;12.40
15680;BMP180;15488;48.114;11.532;2023-12-20T11:51:02;95344.00;;;12.50
15680;BMP180;15488;48.114;11.532;2023-12-20T11:53:30;95346.00;;;12.50
15680;BMP180;15488;48.114;11.532;2023-12-20T11:55:59;95339.00;;;12.50
15680;BMP180;15488;48.114;11.532;2023-12-20T11:58:30;95339.00;;;12.50
15680;BMP180;15488;48.114;11.532;2023-12-20T12:00:58;95338.00;;;12.60
15680;BMP180;15488;48.114;11.532;2023-12-20T12:03:25;95331.00;;;12.40
15680;BMP180;15488;48.114;11.532;2023-12-20T12:05:53;95330.00;;;12.60
15680;BMP180;15488;48.114;11.532;2023-12-20T12:08:21;95325.00;;;12.70
15680;BMP180;15488;48.114;11.532;2023-12-20T12:10:48;95333.00;;;12.70
15680;BMP180;15488;48.114;11.532;2023-12-20T12:13:16;95341.00;;;12.70
15680;BMP180;15488;48.114;11.532;2023-12-20T12:15:45;95327.00;;;12.70
15680;BMP180;15488;48.114;11.532;2023-12-20T12:18:16;95324.00;;;12.60
15680;BMP180;15488;48.114;11.532;2023-12-20T12:20:44;95329.00;;;12.70
15680;BMP180;15488;48.114;11.532;2023-12-20T12:23:12;95319.00;;;12.80
15680;BMP180;15488;48.114;11.532;2023-12-20T12:25:39;95324.00;;;12.70
15680;BMP180;15488;48.114;11.532;2023-12-20T12:28:07;95325.00;;;12.70
15680;BMP180;15488;48.114;11.532;2023-12-20T12:30:35;95326.00;;;12.70
15680;BMP180;15488;48.114;11.532;2023-12-20T12:33:04;95318.00;;;12.70
15680;BMP180;15488;48.114;11.532;2023-12-20T12:35:32;95323.00;;;12.80
15680;BMP180;15488;48.114;11.532;2023-12-20T12:38:01;95313.00;;;12.80
15680;BMP180;15488;48.114;11.532;2023-12-20T12:40:29;95318.00;;;12.80
15680;BMP180;15488;48.114;11.532;2023-12-20T12:42:57;95305.00;;;12.80
15680;BMP180;15488;48.114;11.532;2023-12-20T12:45:24;95306.00;;;12.80
15680;BMP180;15488;48.114;11.532;2023-12-20T12:47:53;95301.00;;;12.80
15680;BMP180;15488;48.114;11.532;2023-12-20T12:50:22;95293.00;;;12.90
15680;BMP180;15488;48.114;11.532;2023-12-20T12:52:50;95294.00;;;12.80
15680;BMP180;15488;48.114;11.532;2023-12-20T12:55:17;95303.00;;;12.80
15680;BMP180;15488;48.114;11.532;2023-12-20T12:57:45;95297.00;;;13.00
15680;BMP180;15488;48.114;11.532;2023-12-20T13:00:13;95298.00;;;12.90
15680;BMP180;15488;48.114;11.532;2023-12-20T13:02:41;95294.00;;;13.00
15680;BMP180;15488;48.114;11.532;2023-12-20T13:05:09;95295.00;;;13.10
15680;BMP180;15488;48.114;11.532;2023-12-20T13:07:38;95297.00;;;13.10
15680;BMP180;15488;48.114;11.532;2023-12-20T13:10:06;95312.00;;;13.10
15680;BMP180;15488;48.114;11.532;2023-12-20T13:12:34;95310.00;;;13.00
15680;BMP180;15488;48.114;11.532;2023-12-20T13:15:02;95322.00;;;13.20
15680;BMP180;15488;48.114;11.532;2023-12-20T13:17:32;95313.00;;;13.10
15680;BMP180;15488;48.114;11.532;2023-12-20T13:20:00;95312.00;;;13.20
15680;BMP180;15488;48.114;11.532;2023-12-20T13:22:29;95316.00;;;13.10
15680;BMP180;15488;48.114;11.532;2023-12-20T13:24:58;95322.00;;;13.00
15680;BMP180;15488;48.114;11.532;2023-12-20T13:27:25;95329.00;;;13.00
15680;BMP180;15488;48.114;11.532;2023-12-20T13:29:54;95322.00;;;13.00
15680;BMP180;15488;48.114;11.532;2023-12-20T13:32:21;95326.00;;;13.00
15680;BMP180;15488;48.114;11.532;2023-12-20T13:34:49;95342.00;;;13.00
15680;BMP180;15488;48.114;11.532;2023-12-20T13:37:17;95343.00;;;13.00
15680;BMP180;15488;48.114;11.532;2023-12-20T13:39:44;95337.00;;;13.00
15680;BMP180;15488;48.114;11.532;2023-12-20T13:42:13;95342.00;;;12.80
15680;BMP180;15488;48.114;11.532;2023-12-20T13:44:41;95338.00;;;12.70
15680;BMP180;15488;48.114;11.532;2023-12-20T13:47:08;95346.00;;;12.70
15680;BMP180;15488;48.114;11.532;2023-12-20T13:49:36;95339.00;;;12.70
15680;BMP180;15488;48.114;11.532;2023-12-20T13:52:04;95348.00;;;12.70
15680;BMP180;15488;48.114;11.532;2023-12-20T13:54:31;95338.00;;;12.50
15680;BMP180;15488;48.114;11.532;2023-12-20T13:56:59;95351.00;;;12.60
15680;BMP180;15488;48.114;11.532;2023-12-20T13:59:28;95348.00;;;12.50
15680;BMP180;15488;48.114;11.532;2023-12-20T14:01:55;95347.00;;;12.50